sensor_id;sensor_type;location;lat;lon;timestamp;temperature;humidity
67141;DHT22;54058;52.010;5.546;2023-09-19T00:02:02;16.60;95.40
67141;DHT22;54058;52.010;5.546;2023-09-19T00:04:32;16.60;95.40
67141;DHT22;54058;52.010;5.546;2023-09-19T00:06:58;16.50;95.40
67141;DHT22;54058;52.010;5.546;2023-09-19T00:09:24;16.50;95.30
67141;DHT22;54058;52.010;5.546;2023-09-19T00:11:53;16.50;95.30
67141;DHT22;54058;52.010;5.546;2023-09-19T00:14:18;16.50;95.40
67141;DHT22;54058;52.010;5.546;2023-09-19T00:16:44;16.50;95.40
67141;DHT22;54058;52.010;5.546;2023-09-19T00:19:12;16.50;95.40
67141;DHT22;54058;52.010;5.546;2023-09-19T00:21:39;16.50;95.50
67141;DHT22;54058;52.010;5.546;2023-09-19T00:24:06;16.50;95.50
67141;DHT22;54058;52.010;5.546;2023-09-19T00:26:32;16.50;95.50
67141;DHT22;54058;52.010;5.546;2023-09-19T00:28:59;16.50;95.60
67141;DHT22;54058;52.010;5.546;2023-09-19T00:31:30;16.50;95.70
67141;DHT22;54058;52.010;5.546;2023-09-19T00:33:56;16.50;95.50
67141;DHT22;54058;52.010;5.546;2023-09-19T00:36:27;16.50;95.50
67141;DHT22;54058;52.010;5.546;2023-09-19T00:38:54;16.50;95.60
67141;DHT22;54058;52.010;5.546;2023-09-19T00:41:20;16.50;95.60
67141;DHT22;54058;52.010;5.546;2023-09-19T00:43:46;16.50;95.60
67141;DHT22;54058;52.010;5.546;2023-09-19T00:46:16;16.50;95.60
67141;DHT22;54058;52.010;5.546;2023-09-19T00:48:42;16.50;95.60
67141;DHT22;54058;52.010;5.546;2023-09-19T00:51:11;16.50;95.60
67141;DHT22;54058;52.010;5.546;2023-09-19T00:53:39;16.60;95.70
67141;DHT22;54058;52.010;5.546;2023-09-19T00:56:11;16.60;95.70
67141;DHT22;54058;52.010;5.546;2023-09-19T00:58:37;16.60;95.70
67141;DHT22;54058;52.010;5.546;2023-09-19T01:01:04;16.60;95.70
67141;DHT22;54058;52.010;5.546;2023-09-19T01:03:33;16.60;96.00
67141;DHT22;54058;52.010;5.546;2023-09-19T01:05:59;16.60;95.70
67141;DHT22;54058;52.010;5.546;2023-09-19T01:08:28;16.60;95.70
67141;DHT22;54058;52.010;5.546;2023-09-19T01:17:03;16.50;95.70
67141;DHT22;54058;52.010;5.546;2023-09-19T01:20:02;16.50;95.80
67141;DHT22;54058;52.010;5.546;2023-09-19T01:22:45;16.50;95.80
67141;DHT22;54058;52.010;5.546;2023-09-19T01:30:43;16.60;95.90
67141;DHT22;54058;52.010;5.546;2023-09-19T01:33:10;16.60;95.90
67141;DHT22;54058;52.010;5.546;2023-09-19T01:35:40;16.60;95.90
67141;DHT22;54058;52.010;5.546;2023-09-19T01:38:08;16.60;95.80
67141;DHT22;54058;52.010;5.546;2023-09-19T01:40:43;16.60;95.80
67141;DHT22;54058;52.010;5.546;2023-09-19T01:43:12;16.60;95.80
67141;DHT22;54058;52.010;5.546;2023-09-19T01:48:38;16.50;95.80
67141;DHT22;54058;52.010;5.546;2023-09-19T01:51:07;16.50;95.70
67141;DHT22;54058;52.010;5.546;2023-09-19T01:54:03;16.50;95.70
67141;DHT22;54058;52.010;5.546;2023-09-19T01:56:48;16.40;95.50
67141;DHT22;54058;52.010;5.546;2023-09-19T01:59:25;16.30;95.60
67141;DHT22;54058;52.010;5.546;2023-09-19T02:01:54;16.30;95.60
67141;DHT22;54058;52.010;5.546;2023-09-19T02:04:20;16.20;95.60
67141;DHT22;54058;52.010;5.546;2023-09-19T02:06:46;16.20;95.60
67141;DHT22;54058;52.010;5.546;2023-09-19T02:09:15;16.20;95.50
67141;DHT22;54058;52.010;5.546;2023-09-19T02:11:40;16.10;95.50
67141;DHT22;54058;52.010;5.546;2023-09-19T02:14:07;16.10;95.50
67141;DHT22;54058;52.010;5.546;2023-09-19T02:16:34;16.10;95.50
67141;DHT22;54058;52.010;5.546;2023-09-19T02:19:00;16.00;95.50
67141;DHT22;54058;52.010;5.546;2023-09-19T02:21:26;16.00;95.40
67141;DHT22;54058;52.010;5.546;2023-09-19T02:23:55;15.90;95.40
67141;DHT22;54058;52.010;5.546;2023-09-19T02:26:20;15.90;95.40
67141;DHT22;54058;52.010;5.546;2023-09-19T02:28:47;15.90;95.40
67141;DHT22;54058;52.010;5.546;2023-09-19T02:31:12;15.90;95.40
67141;DHT22;54058;52.010;5.546;2023-09-19T02:33:38;15.80;95.40
67141;DHT22;54058;52.010;5.546;2023-09-19T02:36:04;15.80;95.40
67141;DHT22;54058;52.010;5.546;2023-09-19T02:38:30;15.70;95.30
67141;DHT22;54058;52.010;5.546;2023-09-19T02:40:55;15.70;95.40
67141;DHT22;54058;52.010;5.546;2023-09-19T02:43:22;15.70;95.40
67141;DHT22;54058;52.010;5.546;2023-09-19T02:45:48;15.70;95.30
67141;DHT22;54058;52.010;5.546;2023-09-19T02:48:19;15.70;95.20
67141;DHT22;54058;52.010;5.546;2023-09-19T02:50:45;15.60;95.20
67141;DHT22;54058;52.010;5.546;2023-09-19T02:53:12;15.50;95.20
67141;DHT22;54058;52.010;5.546;2023-09-19T02:55:38;15.50;95.20
67141;DHT22;54058;52.010;5.546;2023-09-19T02:58:06;15.50;95.30
67141;DHT22;54058;52.010;5.546;2023-09-19T03:00:33;15.40;95.10
67141;DHT22;54058;52.010;5.546;2023-09-19T03:03:01;15.50;95.30
67141;DHT22;54058;52.010;5.546;2023-09-19T03:05:27;15.40;95.20
67141;DHT22;54058;52.010;5.546;2023-09-19T03:07:56;15.40;95.30
67141;DHT22;54058;52.010;5.546;2023-09-19T03:10:22;15.40;95.20
67141;DHT22;54058;52.010;5.546;2023-09-19T03:12:50;15.40;95.20
67141;DHT22;54058;52.010;5.546;2023-09-19T03:15:16;15.40;95.10
67141;DHT22;54058;52.010;5.546;2023-09-19T03:17:43;15.40;95.00
67141;DHT22;54058;52.010;5.546;2023-09-19T03:20:09;15.30;94.80
67141;DHT22;54058;52.010;5.546;2023-09-19T03:22:37;15.30;95.00
67141;DHT22;54058;52.010;5.546;2023-09-19T03:25:03;15.20;94.90
67141;DHT22;54058;52.010;5.546;2023-09-19T03:27:33;15.20;94.90
67141;DHT22;54058;52.010;5.546;2023-09-19T03:29:59;15.20;94.90
67141;DHT22;54058;52.010;5.546;2023-09-19T03:32:25;15.20;95.10
67141;DHT22;54058;52.010;5.546;2023-09-19T03:34:50;15.10;94.90
67141;DHT22;54058;52.010;5.546;2023-09-19T03:37:16;15.10;94.90
67141;DHT22;54058;52.010;5.546;2023-09-19T03:39:42;15.10;94.80
67141;DHT22;54058;52.010;5.546;2023-09-19T03:42:08;15.10;94.80
67141;DHT22;54058;52.010;5.546;2023-09-19T03:44:34;15.10;94.80
67141;DHT22;54058;52.010;5.546;2023-09-19T03:46:59;15.00;94.70
67141;DHT22;54058;52.010;5.546;2023-09-19T03:49:25;15.00;94.70
67141;DHT22;54058;52.010;5.546;2023-09-19T03:51:51;15.00;94.60
67141;DHT22;54058;52.010;5.546;2023-09-19T03:54:17;15.00;94.70
67141;DHT22;54058;52.010;5.546;2023-09-19T03:56:43;15.00;94.70
67141;DHT22;54058;52.010;5.546;2023-09-19T03:59:09;15.00;94.60
67141;DHT22;54058;52.010;5.546;2023-09-19T04:01:35;15.00;94.60
67141;DHT22;54058;52.010;5.546;2023-09-19T04:04:00;14.90;94.60
67141;DHT22;54058;52.010;5.546;2023-09-19T04:06:34;14.90;94.50
67141;DHT22;54058;52.010;5.546;2023-09-19T04:09:00;14.90;94.50
67141;DHT22;54058;52.010;5.546;2023-09-19T04:11:27;14.90;94.10
67141;DHT22;54058;52.010;5.546;2023-09-19T04:13:52;14.90;94.40
67141;DHT22;54058;52.010;5.546;2023-09-19T04:16:18;14.90;94.40
67141;DHT22;54058;52.010;5.546;2023-09-19T04:18:45;14.90;94.30
67141;DHT22;54058;52.010;5.546;2023-09-19T04:21:10;14.80;94.30
67141;DHT22;54058;52.010;5.546;2023-09-19T04:23:36;14.80;94.40
67141;DHT22;54058;52.010;5.546;2023-09-19T04:26:01;14.80;94.30
67141;DHT22;54058;52.010;5.546;2023-09-19T04:28:30;14.80;94.30
67141;DHT22;54058;52.010;5.546;2023-09-19T04:30:56;14.80;94.30
67141;DHT22;54058;52.010;5.546;2023-09-19T04:33:21;14.80;94.30
67141;DHT22;54058;52.010;5.546;2023-09-19T04:35:49;14.80;94.30
67141;DHT22;54058;52.010;5.546;2023-09-19T04:38:17;14.80;94.20
67141;DHT22;54058;52.010;5.546;2023-09-19T04:40:42;14.70;94.20
67141;DHT22;54058;52.010;5.546;2023-09-19T04:43:09;14.70;94.20
67141;DHT22;54058;52.010;5.546;2023-09-19T04:45:34;14.70;94.20
67141;DHT22;54058;52.010;5.546;2023-09-19T04:48:00;14.70;94.30
67141;DHT22;54058;52.010;5.546;2023-09-19T04:50:25;14.70;94.40
67141;DHT22;54058;52.010;5.546;2023-09-19T04:52:53;14.70;94.30
67141;DHT22;54058;52.010;5.546;2023-09-19T04:55:19;14.80;94.40
67141;DHT22;54058;52.010;5.546;2023-09-19T04:57:45;14.80;94.30
67141;DHT22;54058;52.010;5.546;2023-09-19T05:00:18;14.90;94.30
67141;DHT22;54058;52.010;5.546;2023-09-19T05:02:45;14.90;94.20
67141;DHT22;54058;52.010;5.546;2023-09-19T05:05:11;14.90;94.20
67141;DHT22;54058;52.010;5.546;2023-09-19T05:07:42;14.90;94.10
67141;DHT22;54058;52.010;5.546;2023-09-19T05:10:08;14.90;94.10
67141;DHT22;54058;52.010;5.546;2023-09-19T05:12:34;14.90;94.20
67141;DHT22;54058;52.010;5.546;2023-09-19T05:15:07;14.90;94.10
67141;DHT22;54058;52.010;5.546;2023-09-19T05:17:34;14.90;94.10
67141;DHT22;54058;52.010;5.546;2023-09-19T05:20:00;14.80;94.10
67141;DHT22;54058;52.010;5.546;2023-09-19T05:22:50;14.80;94.10
67141;DHT22;54058;52.010;5.546;2023-09-19T05:25:16;14.80;94.10
67141;DHT22;54058;52.010;5.546;2023-09-19T05:27:43;14.80;94.20
67141;DHT22;54058;52.010;5.546;2023-09-19T05:30:09;14.90;94.20
67141;DHT22;54058;52.010;5.546;2023-09-19T05:32:35;14.90;94.20
67141;DHT22;54058;52.010;5.546;2023-09-19T05:35:00;14.90;94.10
67141;DHT22;54058;52.010;5.546;2023-09-19T05:37:26;14.90;94.10
67141;DHT22;54058;52.010;5.546;2023-09-19T05:39:52;14.90;94.10
67141;DHT22;54058;52.010;5.546;2023-09-19T05:42:19;14.90;94.10
67141;DHT22;54058;52.010;5.546;2023-09-19T05:44:44;15.00;94.10
67141;DHT22;54058;52.010;5.546;2023-09-19T05:47:10;15.00;94.10
67141;DHT22;54058;52.010;5.546;2023-09-19T05:49:36;15.00;94.10
67141;DHT22;54058;52.010;5.546;2023-09-19T05:52:08;15.00;94.00
67141;DHT22;54058;52.010;5.546;2023-09-19T05:54:33;15.10;94.00
67141;DHT22;54058;52.010;5.546;2023-09-19T05:57:00;15.10;94.10
67141;DHT22;54058;52.010;5.546;2023-09-19T05:59:27;15.10;94.10
67141;DHT22;54058;52.010;5.546;2023-09-19T06:01:52;15.10;94.10
67141;DHT22;54058;52.010;5.546;2023-09-19T06:04:18;15.10;94.10
67141;DHT22;54058;52.010;5.546;2023-09-19T06:06:45;15.10;94.10
67141;DHT22;54058;52.010;5.546;2023-09-19T06:09:10;15.10;94.10
67141;DHT22;54058;52.010;5.546;2023-09-19T06:11:36;15.20;94.20
67141;DHT22;54058;52.010;5.546;2023-09-19T06:14:03;15.20;94.20
67141;DHT22;54058;52.010;5.546;2023-09-19T06:16:31;15.20;94.20
67141;DHT22;54058;52.010;5.546;2023-09-19T06:18:57;15.30;94.20
67141;DHT22;54058;52.010;5.546;2023-09-19T06:21:25;15.30;94.20
67141;DHT22;54058;52.010;5.546;2023-09-19T06:23:52;15.30;94.20
67141;DHT22;54058;52.010;5.546;2023-09-19T06:26:18;15.30;94.20
67141;DHT22;54058;52.010;5.546;2023-09-19T06:28:44;15.30;94.20
67141;DHT22;54058;52.010;5.546;2023-09-19T06:31:10;15.40;94.30
67141;DHT22;54058;52.010;5.546;2023-09-19T06:33:39;15.40;94.30
67141;DHT22;54058;52.010;5.546;2023-09-19T06:36:05;15.40;94.30
67141;DHT22;54058;52.010;5.546;2023-09-19T06:38:31;15.50;94.60
67141;DHT22;54058;52.010;5.546;2023-09-19T06:40:59;15.60;94.40
67141;DHT22;54058;52.010;5.546;2023-09-19T06:43:26;15.60;94.30
67141;DHT22;54058;52.010;5.546;2023-09-19T06:45:53;15.70;93.90
67141;DHT22;54058;52.010;5.546;2023-09-19T06:48:20;15.70;94.30
67141;DHT22;54058;52.010;5.546;2023-09-19T06:50:46;15.80;94.40
67141;DHT22;54058;52.010;5.546;2023-09-19T06:53:13;15.80;94.70
67141;DHT22;54058;52.010;5.546;2023-09-19T06:55:39;15.80;94.40
67141;DHT22;54058;52.010;5.546;2023-09-19T06:58:05;15.90;94.40
67141;DHT22;54058;52.010;5.546;2023-09-19T07:00:31;16.00;94.30
67141;DHT22;54058;52.010;5.546;2023-09-19T07:03:07;16.00;94.30
67141;DHT22;54058;52.010;5.546;2023-09-19T07:05:39;16.10;94.20
67141;DHT22;54058;52.010;5.546;2023-09-19T07:08:06;16.10;94.30
67141;DHT22;54058;52.010;5.546;2023-09-19T07:10:33;16.20;94.30
67141;DHT22;54058;52.010;5.546;2023-09-19T07:13:03;16.20;94.30
67141;DHT22;54058;52.010;5.546;2023-09-19T07:15:29;16.30;94.40
67141;DHT22;54058;52.010;5.546;2023-09-19T07:17:58;16.30;94.30
67141;DHT22;54058;52.010;5.546;2023-09-19T07:20:26;16.40;94.30
67141;DHT22;54058;52.010;5.546;2023-09-19T07:22:53;16.40;94.30
67141;DHT22;54058;52.010;5.546;2023-09-19T07:25:20;16.50;94.30
67141;DHT22;54058;52.010;5.546;2023-09-19T07:27:46;16.50;94.30
67141;DHT22;54058;52.010;5.546;2023-09-19T07:30:12;16.60;94.60
67141;DHT22;54058;52.010;5.546;2023-09-19T07:32:39;16.70;94.30
67141;DHT22;54058;52.010;5.546;2023-09-19T07:35:06;16.80;94.50
67141;DHT22;54058;52.010;5.546;2023-09-19T07:37:32;16.80;94.20
67141;DHT22;54058;52.010;5.546;2023-09-19T07:40:07;16.90;94.20
67141;DHT22;54058;52.010;5.546;2023-09-19T07:42:37;16.90;93.90
67141;DHT22;54058;52.010;5.546;2023-09-19T07:45:05;16.90;94.20
67141;DHT22;54058;52.010;5.546;2023-09-19T07:47:31;17.00;94.20
67141;DHT22;54058;52.010;5.546;2023-09-19T07:49:58;17.00;94.20
67141;DHT22;54058;52.010;5.546;2023-09-19T07:52:24;17.00;94.20
67141;DHT22;54058;52.010;5.546;2023-09-19T07:54:50;17.10;94.20
67141;DHT22;54058;52.010;5.546;2023-09-19T07:57:16;17.20;94.20
67141;DHT22;54058;52.010;5.546;2023-09-19T07:59:41;17.20;94.00
67141;DHT22;54058;52.010;5.546;2023-09-19T08:02:08;17.20;94.10
67141;DHT22;54058;52.010;5.546;2023-09-19T08:04:43;17.30;94.00
67141;DHT22;54058;52.010;5.546;2023-09-19T08:07:11;17.30;94.00
67141;DHT22;54058;52.010;5.546;2023-09-19T08:09:36;17.30;93.90
67141;DHT22;54058;52.010;5.546;2023-09-19T08:12:04;17.40;94.00
67141;DHT22;54058;52.010;5.546;2023-09-19T08:14:30;17.40;93.90
67141;DHT22;54058;52.010;5.546;2023-09-19T08:16:57;17.40;93.90
67141;DHT22;54058;52.010;5.546;2023-09-19T08:19:26;17.50;94.00
67141;DHT22;54058;52.010;5.546;2023-09-19T08:21:58;17.40;93.80
67141;DHT22;54058;52.010;5.546;2023-09-19T08:24:28;17.50;93.90
67141;DHT22;54058;52.010;5.546;2023-09-19T08:26:55;17.50;93.90
67141;DHT22;54058;52.010;5.546;2023-09-19T08:29:22;17.60;94.00
67141;DHT22;54058;52.010;5.546;2023-09-19T08:31:56;17.70;93.90
67141;DHT22;54058;52.010;5.546;2023-09-19T08:34:23;17.70;93.70
67141;DHT22;54058;52.010;5.546;2023-09-19T08:36:52;17.70;93.90
67141;DHT22;54058;52.010;5.546;2023-09-19T08:39:22;17.80;93.80
67141;DHT22;54058;52.010;5.546;2023-09-19T08:41:47;17.80;93.70
67141;DHT22;54058;52.010;5.546;2023-09-19T08:44:13;17.90;93.70
67141;DHT22;54058;52.010;5.546;2023-09-19T08:46:41;17.90;93.80
67141;DHT22;54058;52.010;5.546;2023-09-19T08:49:27;18.00;93.70
67141;DHT22;54058;52.010;5.546;2023-09-19T08:52:22;18.00;92.80
67141;DHT22;54058;52.010;5.546;2023-09-19T08:54:52;18.00;93.00
67141;DHT22;54058;52.010;5.546;2023-09-19T08:57:21;18.10;93.60
67141;DHT22;54058;52.010;5.546;2023-09-19T08:59:48;18.10;93.50
67141;DHT22;54058;52.010;5.546;2023-09-19T09:02:16;18.10;93.40
67141;DHT22;54058;52.010;5.546;2023-09-19T09:04:45;18.20;93.50
67141;DHT22;54058;52.010;5.546;2023-09-19T09:07:13;18.30;93.40
67141;DHT22;54058;52.010;5.546;2023-09-19T09:09:39;18.30;93.20
67141;DHT22;54058;52.010;5.546;2023-09-19T09:12:12;18.30;93.30
67141;DHT22;54058;52.010;5.546;2023-09-19T09:14:47;18.30;93.10
67141;DHT22;54058;52.010;5.546;2023-09-19T09:17:17;18.40;92.90
67141;DHT22;54058;52.010;5.546;2023-09-19T09:19:46;18.40;92.90
67141;DHT22;54058;52.010;5.546;2023-09-19T09:22:11;18.40;93.10
67141;DHT22;54058;52.010;5.546;2023-09-19T09:24:38;18.50;93.10
67141;DHT22;54058;52.010;5.546;2023-09-19T09:27:16;18.50;93.00
67141;DHT22;54058;52.010;5.546;2023-09-19T09:29:46;18.70;93.10
67141;DHT22;54058;52.010;5.546;2023-09-19T09:32:26;18.80;92.90
67141;DHT22;54058;52.010;5.546;2023-09-19T09:34:56;19.00;92.70
67141;DHT22;54058;52.010;5.546;2023-09-19T09:37:22;19.10;92.70
67141;DHT22;54058;52.010;5.546;2023-09-19T09:39:53;19.10;92.30
67141;DHT22;54058;52.010;5.546;2023-09-19T09:42:36;19.20;92.20
67141;DHT22;54058;52.010;5.546;2023-09-19T09:47:48;19.10;91.00
67141;DHT22;54058;52.010;5.546;2023-09-19T09:50:32;19.10;91.70
67141;DHT22;54058;52.010;5.546;2023-09-19T09:53:27;19.20;91.70
67141;DHT22;54058;52.010;5.546;2023-09-19T09:56:07;19.20;91.10
67141;DHT22;54058;52.010;5.546;2023-09-19T09:58:37;19.20;91.30
67141;DHT22;54058;52.010;5.546;2023-09-19T10:01:06;19.20;91.50
67141;DHT22;54058;52.010;5.546;2023-09-19T10:03:38;19.20;91.50
67141;DHT22;54058;52.010;5.546;2023-09-19T10:06:10;19.30;91.40
67141;DHT22;54058;52.010;5.546;2023-09-19T10:09:02;19.30;91.40
67141;DHT22;54058;52.010;5.546;2023-09-19T10:11:47;19.40;90.70
67141;DHT22;54058;52.010;5.546;2023-09-19T10:14:17;19.40;90.80
67141;DHT22;54058;52.010;5.546;2023-09-19T10:16:49;19.50;91.20
67141;DHT22;54058;52.010;5.546;2023-09-19T10:22:13;19.80;90.10
67141;DHT22;54058;52.010;5.546;2023-09-19T10:24:40;19.80;90.80
67141;DHT22;54058;52.010;5.546;2023-09-19T10:27:06;20.00;90.70
67141;DHT22;54058;52.010;5.546;2023-09-19T10:29:39;20.00;90.60
67141;DHT22;54058;52.010;5.546;2023-09-19T10:32:06;20.00;90.50
67141;DHT22;54058;52.010;5.546;2023-09-19T10:34:35;20.10;90.70
67141;DHT22;54058;52.010;5.546;2023-09-19T10:37:02;20.10;84.30
67141;DHT22;54058;52.010;5.546;2023-09-19T10:39:32;20.00;90.60
67141;DHT22;54058;52.010;5.546;2023-09-19T10:42:02;20.10;90.80
67141;DHT22;54058;52.010;5.546;2023-09-19T10:44:32;20.00;90.20
67141;DHT22;54058;52.010;5.546;2023-09-19T10:46:58;20.10;90.70
67141;DHT22;54058;52.010;5.546;2023-09-19T10:49:25;20.20;90.70
67141;DHT22;54058;52.010;5.546;2023-09-19T10:51:56;20.30;90.50
67141;DHT22;54058;52.010;5.546;2023-09-19T10:54:31;20.50;90.10
67141;DHT22;54058;52.010;5.546;2023-09-19T10:56:59;20.60;90.10
67141;DHT22;54058;52.010;5.546;2023-09-19T10:59:26;20.80;90.20
67141;DHT22;54058;52.010;5.546;2023-09-19T11:02:00;20.80;89.90
67141;DHT22;54058;52.010;5.546;2023-09-19T11:04:40;20.80;89.80
67141;DHT22;54058;52.010;5.546;2023-09-19T11:10:02;20.90;89.80
67141;DHT22;54058;52.010;5.546;2023-09-19T11:15:06;20.90;89.60
67141;DHT22;54058;52.010;5.546;2023-09-19T11:17:40;21.00;89.60
67141;DHT22;54058;52.010;5.546;2023-09-19T11:20:19;21.10;89.10
67141;DHT22;54058;52.010;5.546;2023-09-19T11:30:33;20.90;85.80
67141;DHT22;54058;52.010;5.546;2023-09-19T11:33:22;20.90;88.20
67141;DHT22;54058;52.010;5.546;2023-09-19T11:36:13;21.00;85.00
67141;DHT22;54058;52.010;5.546;2023-09-19T11:46:27;21.20;85.80
67141;DHT22;54058;52.010;5.546;2023-09-19T11:48:54;21.10;86.50
67141;DHT22;54058;52.010;5.546;2023-09-19T11:51:21;21.20;86.60
67141;DHT22;54058;52.010;5.546;2023-09-19T11:53:53;21.20;86.30
67141;DHT22;54058;52.010;5.546;2023-09-19T11:56:21;21.30;85.40
67141;DHT22;54058;52.010;5.546;2023-09-19T11:58:53;21.20;85.70
67141;DHT22;54058;52.010;5.546;2023-09-19T12:01:42;21.30;86.20
67141;DHT22;54058;52.010;5.546;2023-09-19T12:04:17;21.30;81.90
67141;DHT22;54058;52.010;5.546;2023-09-19T12:06:56;21.30;85.00
67141;DHT22;54058;52.010;5.546;2023-09-19T12:09:23;21.30;81.70
67141;DHT22;54058;52.010;5.546;2023-09-19T12:11:50;21.20;84.90
67141;DHT22;54058;52.010;5.546;2023-09-19T12:14:24;21.20;85.20
67141;DHT22;54058;52.010;5.546;2023-09-19T12:16:56;21.20;84.20
67141;DHT22;54058;52.010;5.546;2023-09-19T12:19:23;21.10;84.20
67141;DHT22;54058;52.010;5.546;2023-09-19T12:22:02;21.00;84.80
67141;DHT22;54058;52.010;5.546;2023-09-19T12:24:32;20.80;83.20
67141;DHT22;54058;52.010;5.546;2023-09-19T12:27:03;20.70;84.80
67141;DHT22;54058;52.010;5.546;2023-09-19T12:29:48;20.70;84.50
67141;DHT22;54058;52.010;5.546;2023-09-19T12:32:15;20.60;83.00
67141;DHT22;54058;52.010;5.546;2023-09-19T12:34:53;20.60;85.20
67141;DHT22;54058;52.010;5.546;2023-09-19T12:37:20;20.50;84.90
67141;DHT22;54058;52.010;5.546;2023-09-19T12:39:53;20.50;85.50
67141;DHT22;54058;52.010;5.546;2023-09-19T12:42:40;20.50;85.20
67141;DHT22;54058;52.010;5.546;2023-09-19T12:45:06;20.50;85.40
67141;DHT22;54058;52.010;5.546;2023-09-19T12:47:35;20.50;80.90
67141;DHT22;54058;52.010;5.546;2023-09-19T12:50:14;20.50;85.20
67141;DHT22;54058;52.010;5.546;2023-09-19T12:52:46;20.50;83.10
67141;DHT22;54058;52.010;5.546;2023-09-19T12:55:30;20.30;84.70
67141;DHT22;54058;52.010;5.546;2023-09-19T12:58:14;20.30;83.00
67141;DHT22;54058;52.010;5.546;2023-09-19T13:00:45;20.20;82.90
67141;DHT22;54058;52.010;5.546;2023-09-19T13:03:16;20.10;84.80
67141;DHT22;54058;52.010;5.546;2023-09-19T13:08:18;20.10;84.30
67141;DHT22;54058;52.010;5.546;2023-09-19T13:11:05;20.10;84.50
67141;DHT22;54058;52.010;5.546;2023-09-19T13:13:51;20.10;82.60
67141;DHT22;54058;52.010;5.546;2023-09-19T13:19:55;20.00;82.20
67141;DHT22;54058;52.010;5.546;2023-09-19T13:22:42;19.90;81.50
67141;DHT22;54058;52.010;5.546;2023-09-19T13:25:15;19.90;83.20
67141;DHT22;54058;52.010;5.546;2023-09-19T13:27:45;19.80;84.10
67141;DHT22;54058;52.010;5.546;2023-09-19T13:30:12;19.90;84.50
67141;DHT22;54058;52.010;5.546;2023-09-19T13:32:38;19.90;84.50
67141;DHT22;54058;52.010;5.546;2023-09-19T13:35:06;19.90;84.40
67141;DHT22;54058;52.010;5.546;2023-09-19T13:37:35;19.80;84.20
67141;DHT22;54058;52.010;5.546;2023-09-19T13:40:08;19.80;84.20
67141;DHT22;54058;52.010;5.546;2023-09-19T13:42:34;19.90;84.10
67141;DHT22;54058;52.010;5.546;2023-09-19T13:45:02;19.90;84.40
67141;DHT22;54058;52.010;5.546;2023-09-19T13:47:30;20.00;84.00
67141;DHT22;54058;52.010;5.546;2023-09-19T13:49:56;20.00;84.10
67141;DHT22;54058;52.010;5.546;2023-09-19T13:52:22;20.00;84.10
67141;DHT22;54058;52.010;5.546;2023-09-19T13:54:51;20.10;84.00
67141;DHT22;54058;52.010;5.546;2023-09-19T13:57:18;20.20;83.90
67141;DHT22;54058;52.010;5.546;2023-09-19T13:59:44;20.20;83.50
67141;DHT22;54058;52.010;5.546;2023-09-19T14:02:09;20.30;83.70
67141;DHT22;54058;52.010;5.546;2023-09-19T14:04:35;20.30;83.20
67141;DHT22;54058;52.010;5.546;2023-09-19T14:07:01;20.30;83.40
67141;DHT22;54058;52.010;5.546;2023-09-19T14:09:27;20.40;83.60
67141;DHT22;54058;52.010;5.546;2023-09-19T14:11:53;20.40;83.20
67141;DHT22;54058;52.010;5.546;2023-09-19T14:14:19;20.40;83.10
67141;DHT22;54058;52.010;5.546;2023-09-19T14:16:47;20.40;83.10
67141;DHT22;54058;52.010;5.546;2023-09-19T14:19:13;20.40;83.20
67141;DHT22;54058;52.010;5.546;2023-09-19T14:21:40;20.40;83.00
67141;DHT22;54058;52.010;5.546;2023-09-19T14:24:06;20.40;83.20
67141;DHT22;54058;52.010;5.546;2023-09-19T14:26:38;20.40;83.30
67141;DHT22;54058;52.010;5.546;2023-09-19T14:29:04;20.30;83.10
67141;DHT22;54058;52.010;5.546;2023-09-19T14:31:33;20.20;83.00
67141;DHT22;54058;52.010;5.546;2023-09-19T14:33:59;20.20;83.30
67141;DHT22;54058;52.010;5.546;2023-09-19T14:36:25;20.10;83.40
67141;DHT22;54058;52.010;5.546;2023-09-19T14:38:55;20.10;83.40
67141;DHT22;54058;52.010;5.546;2023-09-19T14:41:21;20.10;83.30
67141;DHT22;54058;52.010;5.546;2023-09-19T14:43:47;20.10;83.30
67141;DHT22;54058;52.010;5.546;2023-09-19T14:46:13;20.10;83.90
67141;DHT22;54058;52.010;5.546;2023-09-19T14:48:39;20.00;83.10
67141;DHT22;54058;52.010;5.546;2023-09-19T14:51:06;20.00;83.10
67141;DHT22;54058;52.010;5.546;2023-09-19T14:53:37;19.90;83.00
67141;DHT22;54058;52.010;5.546;2023-09-19T14:56:04;19.90;83.10
67141;DHT22;54058;52.010;5.546;2023-09-19T14:58:31;19.80;83.10
67141;DHT22;54058;52.010;5.546;2023-09-19T15:01:05;19.80;83.20
67141;DHT22;54058;52.010;5.546;2023-09-19T15:03:32;19.80;82.90
67141;DHT22;54058;52.010;5.546;2023-09-19T15:05:59;19.80;83.10
67141;DHT22;54058;52.010;5.546;2023-09-19T15:08:25;19.80;79.70
67141;DHT22;54058;52.010;5.546;2023-09-19T15:10:51;19.80;83.20
67141;DHT22;54058;52.010;5.546;2023-09-19T15:13:18;19.70;83.00
67141;DHT22;54058;52.010;5.546;2023-09-19T15:15:44;19.70;82.90
67141;DHT22;54058;52.010;5.546;2023-09-19T15:18:12;19.70;82.90
67141;DHT22;54058;52.010;5.546;2023-09-19T15:20:43;19.60;82.90
67141;DHT22;54058;52.010;5.546;2023-09-19T15:23:09;19.60;82.60
67141;DHT22;54058;52.010;5.546;2023-09-19T15:25:35;19.60;82.70
67141;DHT22;54058;52.010;5.546;2023-09-19T15:28:00;19.60;82.80
67141;DHT22;54058;52.010;5.546;2023-09-19T15:30:37;19.60;82.90
67141;DHT22;54058;52.010;5.546;2023-09-19T15:33:03;19.60;82.60
67141;DHT22;54058;52.010;5.546;2023-09-19T15:35:29;19.60;82.80
67141;DHT22;54058;52.010;5.546;2023-09-19T15:37:55;19.50;82.80
67141;DHT22;54058;52.010;5.546;2023-09-19T15:40:21;19.50;83.50
67141;DHT22;54058;52.010;5.546;2023-09-19T15:42:49;19.50;82.90
67141;DHT22;54058;52.010;5.546;2023-09-19T15:45:15;19.50;82.90
67141;DHT22;54058;52.010;5.546;2023-09-19T15:47:42;19.40;83.00
67141;DHT22;54058;52.010;5.546;2023-09-19T15:50:08;19.40;83.10
67141;DHT22;54058;52.010;5.546;2023-09-19T15:52:41;19.40;83.00
67141;DHT22;54058;52.010;5.546;2023-09-19T15:55:07;19.40;83.10
67141;DHT22;54058;52.010;5.546;2023-09-19T15:57:37;19.40;82.90
67141;DHT22;54058;52.010;5.546;2023-09-19T16:00:05;19.40;83.00
67141;DHT22;54058;52.010;5.546;2023-09-19T16:02:35;19.40;83.10
67141;DHT22;54058;52.010;5.546;2023-09-19T16:05:01;19.40;83.20
67141;DHT22;54058;52.010;5.546;2023-09-19T16:07:31;19.30;83.20
67141;DHT22;54058;52.010;5.546;2023-09-19T16:09:57;19.30;83.20
67141;DHT22;54058;52.010;5.546;2023-09-19T16:12:24;19.30;83.60
67141;DHT22;54058;52.010;5.546;2023-09-19T16:14:50;19.20;83.80
67141;DHT22;54058;52.010;5.546;2023-09-19T16:17:16;19.20;84.10
67141;DHT22;54058;52.010;5.546;2023-09-19T16:19:41;19.10;84.10
67141;DHT22;54058;52.010;5.546;2023-09-19T16:22:09;19.10;84.20
67141;DHT22;54058;52.010;5.546;2023-09-19T16:24:35;19.00;84.00
67141;DHT22;54058;52.010;5.546;2023-09-19T16:27:01;19.00;84.10
67141;DHT22;54058;52.010;5.546;2023-09-19T16:29:26;19.00;84.10